sensor_id;sensor_type;location;lat;lon;timestamp;temperature;humidity
52159;DHT22;38145;53.182;6.284;2022-12-20T00:00:57;9.00;99.90
52159;DHT22;38145;53.182;6.284;2022-12-20T00:03:22;9.20;99.90
52159;DHT22;38145;53.182;6.284;2022-12-20T00:05:48;9.20;99.90
52159;DHT22;38145;53.182;6.284;2022-12-20T00:08:14;9.20;99.90
52159;DHT22;38145;53.182;6.284;2022-12-20T00:10:41;9.00;99.90
52159;DHT22;38145;53.182;6.284;2022-12-20T00:13:07;9.00;99.90
52159;DHT22;38145;53.182;6.284;2022-12-20T00:15:33;9.30;99.90
52159;DHT22;38145;53.182;6.284;2022-12-20T00:17:58;9.30;99.90
52159;DHT22;38145;53.182;6.284;2022-12-20T00:20:25;9.20;99.90
52159;DHT22;38145;53.182;6.284;2022-12-20T00:22:51;9.10;99.90
52159;DHT22;38145;53.182;6.284;2022-12-20T00:25:16;9.20;99.90
52159;DHT22;38145;53.182;6.284;2022-12-20T00:27:43;9.30;99.90
52159;DHT22;38145;53.182;6.284;2022-12-20T00:30:08;9.20;99.90
52159;DHT22;38145;53.182;6.284;2022-12-20T00:32:34;9.20;99.90
52159;DHT22;38145;53.182;6.284;2022-12-20T00:35:00;9.20;99.90
52159;DHT22;38145;53.182;6.284;2022-12-20T00:37:25;9.20;99.90
52159;DHT22;38145;53.182;6.284;2022-12-20T00:39:51;9.20;99.90
52159;DHT22;38145;53.182;6.284;2022-12-20T00:42:17;9.30;99.90
52159;DHT22;38145;53.182;6.284;2022-12-20T00:44:42;9.30;99.90
52159;DHT22;38145;53.182;6.284;2022-12-20T00:47:08;9.30;99.90
52159;DHT22;38145;53.182;6.284;2022-12-20T00:49:34;9.20;99.90
52159;DHT22;38145;53.182;6.284;2022-12-20T00:52:00;9.30;99.90
52159;DHT22;38145;53.182;6.284;2022-12-20T00:54:25;9.20;99.90
52159;DHT22;38145;53.182;6.284;2022-12-20T00:56:51;9.30;99.90
52159;DHT22;38145;53.182;6.284;2022-12-20T00:59:17;9.20;99.90
52159;DHT22;38145;53.182;6.284;2022-12-20T01:01:42;9.20;99.90
52159;DHT22;38145;53.182;6.284;2022-12-20T01:04:08;9.20;99.90
52159;DHT22;38145;53.182;6.284;2022-12-20T01:06:33;9.30;99.90
52159;DHT22;38145;53.182;6.284;2022-12-20T01:09:01;9.40;99.90
52159;DHT22;38145;53.182;6.284;2022-12-20T01:11:28;9.40;99.90
52159;DHT22;38145;53.182;6.284;2022-12-20T01:13:55;9.30;99.90
52159;DHT22;38145;53.182;6.284;2022-12-20T01:16:22;9.40;99.90
52159;DHT22;38145;53.182;6.284;2022-12-20T01:18:49;9.30;99.90
52159;DHT22;38145;53.182;6.284;2022-12-20T01:21:15;9.40;99.90
52159;DHT22;38145;53.182;6.284;2022-12-20T01:23:41;9.40;99.90
52159;DHT22;38145;53.182;6.284;2022-12-20T01:26:09;9.40;99.90
52159;DHT22;38145;53.182;6.284;2022-12-20T01:28:36;9.40;99.90
52159;DHT22;38145;53.182;6.284;2022-12-20T01:31:05;9.30;99.90
52159;DHT22;38145;53.182;6.284;2022-12-20T01:33:30;9.40;99.90
52159;DHT22;38145;53.182;6.284;2022-12-20T01:35:56;9.40;99.90
52159;DHT22;38145;53.182;6.284;2022-12-20T01:38:22;9.30;99.90
52159;DHT22;38145;53.182;6.284;2022-12-20T01:40:48;9.40;99.90
52159;DHT22;38145;53.182;6.284;2022-12-20T01:43:14;9.40;99.90
52159;DHT22;38145;53.182;6.284;2022-12-20T01:45:40;9.40;99.90
52159;DHT22;38145;53.182;6.284;2022-12-20T01:48:05;9.40;99.90
52159;DHT22;38145;53.182;6.284;2022-12-20T01:50:32;9.40;99.90
52159;DHT22;38145;53.182;6.284;2022-12-20T01:52:58;9.40;99.90
52159;DHT22;38145;53.182;6.284;2022-12-20T01:55:25;9.40;99.90
52159;DHT22;38145;53.182;6.284;2022-12-20T01:57:56;9.30;99.90
52159;DHT22;38145;53.182;6.284;2022-12-20T02:00:23;9.40;99.90
52159;DHT22;38145;53.182;6.284;2022-12-20T02:02:49;9.30;99.90
52159;DHT22;38145;53.182;6.284;2022-12-20T02:05:16;9.40;99.90
52159;DHT22;38145;53.182;6.284;2022-12-20T02:07:42;9.40;99.90
52159;DHT22;38145;53.182;6.284;2022-12-20T02:10:09;9.40;99.90
52159;DHT22;38145;53.182;6.284;2022-12-20T02:12:40;9.40;99.90
52159;DHT22;38145;53.182;6.284;2022-12-20T02:17:51;9.40;99.90
52159;DHT22;38145;53.182;6.284;2022-12-20T02:23:09;9.40;99.90
52159;DHT22;38145;53.182;6.284;2022-12-20T02:28:22;9.40;99.90
52159;DHT22;38145;53.182;6.284;2022-12-20T02:30:52;9.40;99.90
52159;DHT22;38145;53.182;6.284;2022-12-20T02:33:19;9.40;99.90
52159;DHT22;38145;53.182;6.284;2022-12-20T02:35:46;9.30;99.90
52159;DHT22;38145;53.182;6.284;2022-12-20T02:38:23;9.40;99.90
52159;DHT22;38145;53.182;6.284;2022-12-20T02:40:50;9.40;99.90
52159;DHT22;38145;53.182;6.284;2022-12-20T02:43:18;9.40;99.90
52159;DHT22;38145;53.182;6.284;2022-12-20T02:46:03;9.40;99.90
52159;DHT22;38145;53.182;6.284;2022-12-20T02:48:29;9.40;99.90
52159;DHT22;38145;53.182;6.284;2022-12-20T02:50:55;9.40;99.90
52159;DHT22;38145;53.182;6.284;2022-12-20T02:53:22;9.40;99.90
52159;DHT22;38145;53.182;6.284;2022-12-20T02:55:53;9.40;99.90
52159;DHT22;38145;53.182;6.284;2022-12-20T02:58:26;9.40;99.90
52159;DHT22;38145;53.182;6.284;2022-12-20T03:00:53;9.30;99.90
52159;DHT22;38145;53.182;6.284;2022-12-20T03:03:20;9.20;99.90
52159;DHT22;38145;53.182;6.284;2022-12-20T03:05:48;9.20;99.90
52159;DHT22;38145;53.182;6.284;2022-12-20T03:08:14;9.20;99.90
52159;DHT22;38145;53.182;6.284;2022-12-20T03:10:40;9.20;99.90
52159;DHT22;38145;53.182;6.284;2022-12-20T03:13:05;9.30;99.90
52159;DHT22;38145;53.182;6.284;2022-12-20T03:15:31;9.20;99.90
52159;DHT22;38145;53.182;6.284;2022-12-20T03:17:57;9.20;99.90
52159;DHT22;38145;53.182;6.284;2022-12-20T03:20:22;9.20;99.90
52159;DHT22;38145;53.182;6.284;2022-12-20T03:22:48;9.20;99.90
52159;DHT22;38145;53.182;6.284;2022-12-20T03:25:14;9.00;99.90
52159;DHT22;38145;53.182;6.284;2022-12-20T03:27:39;9.10;99.90
52159;DHT22;38145;53.182;6.284;2022-12-20T03:30:05;9.00;99.90
52159;DHT22;38145;53.182;6.284;2022-12-20T03:32:31;9.10;99.90
52159;DHT22;38145;53.182;6.284;2022-12-20T03:34:56;9.00;99.90
52159;DHT22;38145;53.182;6.284;2022-12-20T03:37:22;9.20;99.90
52159;DHT22;38145;53.182;6.284;2022-12-20T03:39:48;9.10;99.90
52159;DHT22;38145;53.182;6.284;2022-12-20T03:42:14;9.00;99.90
52159;DHT22;38145;53.182;6.284;2022-12-20T03:44:39;8.90;99.90
52159;DHT22;38145;53.182;6.284;2022-12-20T03:47:05;9.20;99.90
52159;DHT22;38145;53.182;6.284;2022-12-20T03:49:30;9.20;99.90
52159;DHT22;38145;53.182;6.284;2022-12-20T03:51:56;9.00;99.90
52159;DHT22;38145;53.182;6.284;2022-12-20T03:54:22;9.20;99.90
52159;DHT22;38145;53.182;6.284;2022-12-20T03:56:47;9.00;99.90
52159;DHT22;38145;53.182;6.284;2022-12-20T03:59:13;9.20;99.90
52159;DHT22;38145;53.182;6.284;2022-12-20T04:01:38;9.10;99.90
52159;DHT22;38145;53.182;6.284;2022-12-20T04:04:04;9.20;99.90
52159;DHT22;38145;53.182;6.284;2022-12-20T04:06:30;9.30;99.90
52159;DHT22;38145;53.182;6.284;2022-12-20T04:08:55;9.00;99.90
52159;DHT22;38145;53.182;6.284;2022-12-20T04:11:21;9.30;99.90
52159;DHT22;38145;53.182;6.284;2022-12-20T04:13:48;9.40;99.90
52159;DHT22;38145;53.182;6.284;2022-12-20T04:16:15;9.20;99.90
52159;DHT22;38145;53.182;6.284;2022-12-20T04:18:41;9.20;99.90
52159;DHT22;38145;53.182;6.284;2022-12-20T04:21:06;9.30;99.90
52159;DHT22;38145;53.182;6.284;2022-12-20T04:23:33;9.20;99.90
52159;DHT22;38145;53.182;6.284;2022-12-20T04:25:59;9.50;99.90
52159;DHT22;38145;53.182;6.284;2022-12-20T04:28:26;9.50;99.90
52159;DHT22;38145;53.182;6.284;2022-12-20T04:30:51;9.50;99.90
52159;DHT22;38145;53.182;6.284;2022-12-20T04:33:17;9.50;99.90
52159;DHT22;38145;53.182;6.284;2022-12-20T04:35:42;9.30;99.90
52159;DHT22;38145;53.182;6.284;2022-12-20T04:38:08;9.30;99.90
52159;DHT22;38145;53.182;6.284;2022-12-20T04:40:34;9.30;99.90
52159;DHT22;38145;53.182;6.284;2022-12-20T04:42:59;9.50;99.90
52159;DHT22;38145;53.182;6.284;2022-12-20T04:45:25;9.40;99.90
52159;DHT22;38145;53.182;6.284;2022-12-20T04:47:50;9.50;99.90
52159;DHT22;38145;53.182;6.284;2022-12-20T04:50:16;9.40;99.90
52159;DHT22;38145;53.182;6.284;2022-12-20T04:52:43;9.40;99.90
52159;DHT22;38145;53.182;6.284;2022-12-20T04:55:27;9.30;99.90
52159;DHT22;38145;53.182;6.284;2022-12-20T04:57:53;9.50;99.90
52159;DHT22;38145;53.182;6.284;2022-12-20T05:00:19;9.50;99.90
52159;DHT22;38145;53.182;6.284;2022-12-20T05:02:45;9.40;99.90
52159;DHT22;38145;53.182;6.284;2022-12-20T05:05:11;9.40;99.90
52159;DHT22;38145;53.182;6.284;2022-12-20T05:07:36;9.40;99.90
52159;DHT22;38145;53.182;6.284;2022-12-20T05:10:02;9.60;99.90
52159;DHT22;38145;53.182;6.284;2022-12-20T05:12:28;9.40;99.90
52159;DHT22;38145;53.182;6.284;2022-12-20T05:14:54;9.60;99.90
52159;DHT22;38145;53.182;6.284;2022-12-20T05:17:19;9.60;99.90
52159;DHT22;38145;53.182;6.284;2022-12-20T05:19:45;9.50;99.90
52159;DHT22;38145;53.182;6.284;2022-12-20T05:22:11;9.40;99.90
52159;DHT22;38145;53.182;6.284;2022-12-20T05:24:55;9.40;99.90
52159;DHT22;38145;53.182;6.284;2022-12-20T05:27:39;9.60;99.90
52159;DHT22;38145;53.182;6.284;2022-12-20T05:30:05;9.70;99.90
52159;DHT22;38145;53.182;6.284;2022-12-20T05:32:31;9.40;99.90
52159;DHT22;38145;53.182;6.284;2022-12-20T05:34:57;9.60;99.90
52159;DHT22;38145;53.182;6.284;2022-12-20T05:37:22;9.60;99.90
52159;DHT22;38145;53.182;6.284;2022-12-20T05:39:48;9.60;99.90
52159;DHT22;38145;53.182;6.284;2022-12-20T05:42:14;9.70;99.90
52159;DHT22;38145;53.182;6.284;2022-12-20T05:44:40;9.70;99.90
52159;DHT22;38145;53.182;6.284;2022-12-20T05:47:06;9.70;99.90
52159;DHT22;38145;53.182;6.284;2022-12-20T05:49:31;9.70;99.90
52159;DHT22;38145;53.182;6.284;2022-12-20T05:51:57;9.60;99.90
52159;DHT22;38145;53.182;6.284;2022-12-20T05:54:22;9.60;99.90
52159;DHT22;38145;53.182;6.284;2022-12-20T05:56:49;9.60;99.90
52159;DHT22;38145;53.182;6.284;2022-12-20T05:59:15;9.70;99.90
52159;DHT22;38145;53.182;6.284;2022-12-20T06:01:42;9.50;99.90
52159;DHT22;38145;53.182;6.284;2022-12-20T06:04:07;9.60;99.90
52159;DHT22;38145;53.182;6.284;2022-12-20T06:06:33;9.50;99.90
52159;DHT22;38145;53.182;6.284;2022-12-20T06:08:59;9.70;99.90
52159;DHT22;38145;53.182;6.284;2022-12-20T06:11:25;9.70;99.90
52159;DHT22;38145;53.182;6.284;2022-12-20T06:13:51;9.60;99.90
52159;DHT22;38145;53.182;6.284;2022-12-20T06:16:17;9.60;99.90
52159;DHT22;38145;53.182;6.284;2022-12-20T06:18:45;9.60;99.90
52159;DHT22;38145;53.182;6.284;2022-12-20T06:21:10;9.60;99.90
52159;DHT22;38145;53.182;6.284;2022-12-20T06:23:36;9.60;99.90
52159;DHT22;38145;53.182;6.284;2022-12-20T06:26:02;9.80;99.90
52159;DHT22;38145;53.182;6.284;2022-12-20T06:28:29;9.70;99.90
52159;DHT22;38145;53.182;6.284;2022-12-20T06:30:55;9.70;99.90
52159;DHT22;38145;53.182;6.284;2022-12-20T06:33:21;9.80;99.90
52159;DHT22;38145;53.182;6.284;2022-12-20T06:35:48;9.70;99.90
52159;DHT22;38145;53.182;6.284;2022-12-20T06:38:14;9.80;99.90
52159;DHT22;38145;53.182;6.284;2022-12-20T06:40:40;9.90;99.90
52159;DHT22;38145;53.182;6.284;2022-12-20T06:43:05;9.80;99.90
52159;DHT22;38145;53.182;6.284;2022-12-20T06:45:31;9.80;99.90
52159;DHT22;38145;53.182;6.284;2022-12-20T06:47:57;9.90;99.90
52159;DHT22;38145;53.182;6.284;2022-12-20T06:50:22;9.90;99.90
52159;DHT22;38145;53.182;6.284;2022-12-20T06:52:48;10.00;99.90
52159;DHT22;38145;53.182;6.284;2022-12-20T06:55:14;9.90;99.90
52159;DHT22;38145;53.182;6.284;2022-12-20T06:57:40;10.00;99.90
52159;DHT22;38145;53.182;6.284;2022-12-20T07:00:05;9.90;99.90
52159;DHT22;38145;53.182;6.284;2022-12-20T07:02:32;10.00;99.90
52159;DHT22;38145;53.182;6.284;2022-12-20T07:04:58;10.00;99.90
52159;DHT22;38145;53.182;6.284;2022-12-20T07:07:24;9.90;99.90
52159;DHT22;38145;53.182;6.284;2022-12-20T07:09:50;9.80;99.90
52159;DHT22;38145;53.182;6.284;2022-12-20T07:12:15;9.80;99.90
52159;DHT22;38145;53.182;6.284;2022-12-20T07:14:41;10.00;99.90
52159;DHT22;38145;53.182;6.284;2022-12-20T07:17:06;10.00;99.90
52159;DHT22;38145;53.182;6.284;2022-12-20T07:19:32;9.70;99.90
52159;DHT22;38145;53.182;6.284;2022-12-20T07:21:58;9.90;99.90
52159;DHT22;38145;53.182;6.284;2022-12-20T07:24:24;9.60;99.90
52159;DHT22;38145;53.182;6.284;2022-12-20T07:26:50;9.80;99.90
52159;DHT22;38145;53.182;6.284;2022-12-20T07:29:15;9.70;99.90
52159;DHT22;38145;53.182;6.284;2022-12-20T07:31:41;9.80;99.90
52159;DHT22;38145;53.182;6.284;2022-12-20T07:34:06;9.90;99.90
52159;DHT22;38145;53.182;6.284;2022-12-20T07:36:32;9.90;99.90
52159;DHT22;38145;53.182;6.284;2022-12-20T07:38:58;9.60;99.90
52159;DHT22;38145;53.182;6.284;2022-12-20T07:41:23;9.70;99.90
52159;DHT22;38145;53.182;6.284;2022-12-20T07:43:49;9.80;99.90
52159;DHT22;38145;53.182;6.284;2022-12-20T07:46:16;9.60;99.90
52159;DHT22;38145;53.182;6.284;2022-12-20T07:48:42;9.90;99.90
52159;DHT22;38145;53.182;6.284;2022-12-20T07:51:16;9.90;99.90
52159;DHT22;38145;53.182;6.284;2022-12-20T07:53:44;9.60;99.90
52159;DHT22;38145;53.182;6.284;2022-12-20T07:56:11;9.70;99.90
52159;DHT22;38145;53.182;6.284;2022-12-20T07:58:38;9.80;99.90
52159;DHT22;38145;53.182;6.284;2022-12-20T08:01:05;9.50;99.90
52159;DHT22;38145;53.182;6.284;2022-12-20T08:03:34;9.90;99.90
52159;DHT22;38145;53.182;6.284;2022-12-20T08:06:01;9.50;99.90
52159;DHT22;38145;53.182;6.284;2022-12-20T08:08:29;9.90;99.90
52159;DHT22;38145;53.182;6.284;2022-12-20T08:10:56;9.70;99.90
52159;DHT22;38145;53.182;6.284;2022-12-20T08:13:22;9.60;99.90
52159;DHT22;38145;53.182;6.284;2022-12-20T08:15:47;9.90;99.90
52159;DHT22;38145;53.182;6.284;2022-12-20T08:18:13;9.60;99.90
52159;DHT22;38145;53.182;6.284;2022-12-20T08:20:40;9.60;99.90
52159;DHT22;38145;53.182;6.284;2022-12-20T08:23:08;9.60;99.90
52159;DHT22;38145;53.182;6.284;2022-12-20T08:25:34;9.90;99.90
52159;DHT22;38145;53.182;6.284;2022-12-20T08:28:00;9.60;99.90
52159;DHT22;38145;53.182;6.284;2022-12-20T08:30:27;9.70;99.90
52159;DHT22;38145;53.182;6.284;2022-12-20T08:32:53;9.90;99.90
52159;DHT22;38145;53.182;6.284;2022-12-20T08:35:19;9.80;99.90
52159;DHT22;38145;53.182;6.284;2022-12-20T08:37:44;9.70;99.90
52159;DHT22;38145;53.182;6.284;2022-12-20T08:40:10;10.00;99.90
52159;DHT22;38145;53.182;6.284;2022-12-20T08:42:36;9.80;99.90
52159;DHT22;38145;53.182;6.284;2022-12-20T08:45:02;9.70;99.90
52159;DHT22;38145;53.182;6.284;2022-12-20T08:47:28;9.70;99.90
52159;DHT22;38145;53.182;6.284;2022-12-20T08:49:54;9.90;99.90
52159;DHT22;38145;53.182;6.284;2022-12-20T08:52:20;9.80;99.90
52159;DHT22;38145;53.182;6.284;2022-12-20T08:54:46;9.80;99.90
52159;DHT22;38145;53.182;6.284;2022-12-20T08:57:12;9.80;99.90
52159;DHT22;38145;53.182;6.284;2022-12-20T08:59:38;9.80;99.90
52159;DHT22;38145;53.182;6.284;2022-12-20T09:02:03;10.10;99.90
52159;DHT22;38145;53.182;6.284;2022-12-20T09:04:29;9.90;99.90
52159;DHT22;38145;53.182;6.284;2022-12-20T09:06:55;10.00;99.90
52159;DHT22;38145;53.182;6.284;2022-12-20T09:09:21;9.90;99.90
52159;DHT22;38145;53.182;6.284;2022-12-20T09:11:46;10.10;99.90
52159;DHT22;38145;53.182;6.284;2022-12-20T09:14:12;10.00;99.90
52159;DHT22;38145;53.182;6.284;2022-12-20T09:16:38;10.20;99.90
52159;DHT22;38145;53.182;6.284;2022-12-20T09:19:03;10.10;99.90
52159;DHT22;38145;53.182;6.284;2022-12-20T09:21:29;10.20;99.90
52159;DHT22;38145;53.182;6.284;2022-12-20T09:23:55;10.20;99.90
52159;DHT22;38145;53.182;6.284;2022-12-20T09:26:22;10.00;99.90
52159;DHT22;38145;53.182;6.284;2022-12-20T09:28:48;10.20;99.90
52159;DHT22;38145;53.182;6.284;2022-12-20T09:31:15;10.20;99.90
52159;DHT22;38145;53.182;6.284;2022-12-20T09:33:41;10.20;99.90
52159;DHT22;38145;53.182;6.284;2022-12-20T09:36:12;10.10;99.90
52159;DHT22;38145;53.182;6.284;2022-12-20T09:38:38;10.20;99.90
52159;DHT22;38145;53.182;6.284;2022-12-20T09:41:04;10.30;99.90
52159;DHT22;38145;53.182;6.284;2022-12-20T09:43:31;10.30;99.90
52159;DHT22;38145;53.182;6.284;2022-12-20T09:45:58;10.20;99.90
52159;DHT22;38145;53.182;6.284;2022-12-20T09:48:25;10.40;99.90
52159;DHT22;38145;53.182;6.284;2022-12-20T09:53:28;10.40;99.90
52159;DHT22;38145;53.182;6.284;2022-12-20T09:55:58;10.50;99.90
52159;DHT22;38145;53.182;6.284;2022-12-20T09:58:38;10.40;99.90
52159;DHT22;38145;53.182;6.284;2022-12-20T10:01:13;10.40;99.90
52159;DHT22;38145;53.182;6.284;2022-12-20T10:03:40;10.40;99.90
52159;DHT22;38145;53.182;6.284;2022-12-20T10:06:08;10.40;99.90
52159;DHT22;38145;53.182;6.284;2022-12-20T10:08:44;10.40;99.90
52159;DHT22;38145;53.182;6.284;2022-12-20T10:13:44;10.30;99.90
52159;DHT22;38145;53.182;6.284;2022-12-20T10:18:46;10.40;99.90
52159;DHT22;38145;53.182;6.284;2022-12-20T10:26:14;10.50;99.90
52159;DHT22;38145;53.182;6.284;2022-12-20T10:28:40;10.30;99.90
52159;DHT22;38145;53.182;6.284;2022-12-20T10:31:06;10.50;99.90
52159;DHT22;38145;53.182;6.284;2022-12-20T10:33:32;10.30;99.90
52159;DHT22;38145;53.182;6.284;2022-12-20T10:36:29;10.40;99.90
52159;DHT22;38145;53.182;6.284;2022-12-20T10:38:45;10.40;99.90
52159;DHT22;38145;53.182;6.284;2022-12-20T10:41:13;10.50;99.90
52159;DHT22;38145;53.182;6.284;2022-12-20T10:43:42;10.40;99.90
52159;DHT22;38145;53.182;6.284;2022-12-20T10:46:08;10.40;99.90
52159;DHT22;38145;53.182;6.284;2022-12-20T10:48:36;10.40;99.90
52159;DHT22;38145;53.182;6.284;2022-12-20T10:53:29;10.50;99.90
52159;DHT22;38145;53.182;6.284;2022-12-20T10:56:11;10.50;99.90
52159;DHT22;38145;53.182;6.284;2022-12-20T10:58:37;10.40;99.90
52159;DHT22;38145;53.182;6.284;2022-12-20T11:01:11;10.40;99.90
52159;DHT22;38145;53.182;6.284;2022-12-20T11:03:49;10.50;99.90
52159;DHT22;38145;53.182;6.284;2022-12-20T11:06:16;10.50;99.90
52159;DHT22;38145;53.182;6.284;2022-12-20T11:08:42;10.30;99.90
52159;DHT22;38145;53.182;6.284;2022-12-20T11:11:10;10.50;99.90
52159;DHT22;38145;53.182;6.284;2022-12-20T11:13:37;10.30;99.90
52159;DHT22;38145;53.182;6.284;2022-12-20T11:16:03;10.40;99.90
52159;DHT22;38145;53.182;6.284;2022-12-20T11:18:34;10.40;99.90
52159;DHT22;38145;53.182;6.284;2022-12-20T11:31:03;10.30;99.90
52159;DHT22;38145;53.182;6.284;2022-12-20T11:33:44;10.30;99.90
52159;DHT22;38145;53.182;6.284;2022-12-20T11:36:29;10.40;99.90
52159;DHT22;38145;53.182;6.284;2022-12-20T11:38:59;10.20;99.90
52159;DHT22;38145;53.182;6.284;2022-12-20T11:41:37;10.20;99.90
52159;DHT22;38145;53.182;6.284;2022-12-20T11:44:08;10.20;99.90
52159;DHT22;38145;53.182;6.284;2022-12-20T11:49:14;10.30;99.90
52159;DHT22;38145;53.182;6.284;2022-12-20T11:51:45;10.20;99.90
52159;DHT22;38145;53.182;6.284;2022-12-20T11:54:13;10.20;99.90
52159;DHT22;38145;53.182;6.284;2022-12-20T11:56:40;10.20;99.90
52159;DHT22;38145;53.182;6.284;2022-12-20T11:59:14;10.10;99.90
52159;DHT22;38145;53.182;6.284;2022-12-20T12:02:08;10.20;99.90
52159;DHT22;38145;53.182;6.284;2022-12-20T12:04:36;10.20;99.90
52159;DHT22;38145;53.182;6.284;2022-12-20T12:07:05;10.20;99.90
52159;DHT22;38145;53.182;6.284;2022-12-20T12:09:35;10.30;99.90
52159;DHT22;38145;53.182;6.284;2022-12-20T12:12:03;10.10;99.90
52159;DHT22;38145;53.182;6.284;2022-12-20T12:14:37;10.20;99.90
52159;DHT22;38145;53.182;6.284;2022-12-20T12:17:08;10.30;99.90
52159;DHT22;38145;53.182;6.284;2022-12-20T12:19:36;10.20;99.90
52159;DHT22;38145;53.182;6.284;2022-12-20T12:22:05;10.30;99.90
52159;DHT22;38145;53.182;6.284;2022-12-20T12:24:34;10.20;99.90
52159;DHT22;38145;53.182;6.284;2022-12-20T12:27:03;10.10;99.90
52159;DHT22;38145;53.182;6.284;2022-12-20T12:29:29;10.20;99.90
52159;DHT22;38145;53.182;6.284;2022-12-20T12:32:05;10.30;99.90
52159;DHT22;38145;53.182;6.284;2022-12-20T12:42:11;10.00;99.90
52159;DHT22;38145;53.182;6.284;2022-12-20T12:44:49;10.10;99.90
52159;DHT22;38145;53.182;6.284;2022-12-20T12:47:22;10.00;99.90
52159;DHT22;38145;53.182;6.284;2022-12-20T12:49:50;10.30;99.90
52159;DHT22;38145;53.182;6.284;2022-12-20T12:52:25;10.00;99.90
52159;DHT22;38145;53.182;6.284;2022-12-20T12:54:52;10.10;99.90
52159;DHT22;38145;53.182;6.284;2022-12-20T12:57:17;10.30;99.90
52159;DHT22;38145;53.182;6.284;2022-12-20T12:59:44;10.00;99.90
52159;DHT22;38145;53.182;6.284;2022-12-20T13:04:52;10.30;99.90
52159;DHT22;38145;53.182;6.284;2022-12-20T13:07:24;10.20;99.90
52159;DHT22;38145;53.182;6.284;2022-12-20T13:09:50;10.30;99.90
52159;DHT22;38145;53.182;6.284;2022-12-20T13:15:00;10.00;99.90
52159;DHT22;38145;53.182;6.284;2022-12-20T13:19:53;10.10;99.90
52159;DHT22;38145;53.182;6.284;2022-12-20T13:22:25;10.20;99.90
52159;DHT22;38145;53.182;6.284;2022-12-20T13:24:56;10.30;99.90
52159;DHT22;38145;53.182;6.284;2022-12-20T13:27:23;10.30;99.90
52159;DHT22;38145;53.182;6.284;2022-12-20T13:29:59;10.10;99.90
52159;DHT22;38145;53.182;6.284;2022-12-20T13:35:28;10.20;99.90
52159;DHT22;38145;53.182;6.284;2022-12-20T13:40:30;10.40;99.90
52159;DHT22;38145;53.182;6.284;2022-12-20T13:42:58;10.40;99.90
52159;DHT22;38145;53.182;6.284;2022-12-20T13:45:26;10.40;99.90
52159;DHT22;38145;53.182;6.284;2022-12-20T13:47:53;10.40;99.90
52159;DHT22;38145;53.182;6.284;2022-12-20T13:50:27;10.10;99.90
52159;DHT22;38145;53.182;6.284;2022-12-20T13:52:55;10.30;99.90
52159;DHT22;38145;53.182;6.284;2022-12-20T13:55:32;10.20;99.90
52159;DHT22;38145;53.182;6.284;2022-12-20T13:58:02;10.10;99.90
52159;DHT22;38145;53.182;6.284;2022-12-20T14:00:28;10.10;99.90
52159;DHT22;38145;53.182;6.284;2022-12-20T14:02:54;10.20;99.90
52159;DHT22;38145;53.182;6.284;2022-12-20T14:05:22;10.40;99.90
52159;DHT22;38145;53.182;6.284;2022-12-20T14:07:54;10.40;99.90
52159;DHT22;38145;53.182;6.284;2022-12-20T14:10:22;10.30;99.90
52159;DHT22;38145;53.182;6.284;2022-12-20T14:12:49;10.20;99.90
52159;DHT22;38145;53.182;6.284;2022-12-20T14:15:21;10.30;99.90
52159;DHT22;38145;53.182;6.284;2022-12-20T14:17:47;10.10;99.90
52159;DHT22;38145;53.182;6.284;2022-12-20T14:22:41;10.30;99.90
52159;DHT22;38145;53.182;6.284;2022-12-20T14:25:10;10.30;99.90
52159;DHT22;38145;53.182;6.284;2022-12-20T14:27:39;10.10;99.90
52159;DHT22;38145;53.182;6.284;2022-12-20T14:30:06;10.10;99.90
52159;DHT22;38145;53.182;6.284;2022-12-20T14:32:31;10.20;99.90
52159;DHT22;38145;53.182;6.284;2022-12-20T14:34:57;10.10;99.90
52159;DHT22;38145;53.182;6.284;2022-12-20T14:37:25;10.20;99.90
52159;DHT22;38145;53.182;6.284;2022-12-20T14:39:53;10.30;99.90
52159;DHT22;38145;53.182;6.284;2022-12-20T14:42:19;10.40;99.90
52159;DHT22;38145;53.182;6.284;2022-12-20T14:44:45;10.40;99.90
52159;DHT22;38145;53.182;6.284;2022-12-20T14:47:17;10.40;99.90
52159;DHT22;38145;53.182;6.284;2022-12-20T14:49:47;10.10;99.90
52159;DHT22;38145;53.182;6.284;2022-12-20T14:52:14;10.10;99.90
52159;DHT22;38145;53.182;6.284;2022-12-20T14:54:43;10.30;99.90
52159;DHT22;38145;53.182;6.284;2022-12-20T14:57:10;10.10;99.90
52159;DHT22;38145;53.182;6.284;2022-12-20T14:59:54;10.10;99.90
52159;DHT22;38145;53.182;6.284;2022-12-20T15:02:26;10.40;99.90
52159;DHT22;38145;53.182;6.284;2022-12-20T15:04:52;10.20;99.90
52159;DHT22;38145;53.182;6.284;2022-12-20T15:07:34;10.30;99.90
52159;DHT22;38145;53.182;6.284;2022-12-20T15:09:59;10.40;99.90
52159;DHT22;38145;53.182;6.284;2022-12-20T15:12:25;10.30;99.90
52159;DHT22;38145;53.182;6.284;2022-12-20T15:14:51;10.20;99.90
52159;DHT22;38145;53.182;6.284;2022-12-20T15:17:17;10.10;99.90
52159;DHT22;38145;53.182;6.284;2022-12-20T15:19:42;10.20;99.90
52159;DHT22;38145;53.182;6.284;2022-12-20T15:22:12;10.20;99.90
52159;DHT22;38145;53.182;6.284;2022-12-20T15:24:38;10.20;99.90
52159;DHT22;38145;53.182;6.284;2022-12-20T15:27:05;10.10;99.90
52159;DHT22;38145;53.182;6.284;2022-12-20T15:29:30;10.40;99.90
52159;DHT22;38145;53.182;6.284;2022-12-20T15:32:04;10.10;99.90
52159;DHT22;38145;53.182;6.284;2022-12-20T15:34:35;10.40;99.90
52159;DHT22;38145;53.182;6.284;2022-12-20T15:37:01;10.30;99.90
52159;DHT22;38145;53.182;6.284;2022-12-20T15:39:27;10.30;99.90
52159;DHT22;38145;53.182;6.284;2022-12-20T15:41:53;10.20;99.90
52159;DHT22;38145;53.182;6.284;2022-12-20T15:44:20;10.00;99.90
52159;DHT22;38145;53.182;6.284;2022-12-20T15:46:46;10.10;99.90
52159;DHT22;38145;53.182;6.284;2022-12-20T15:49:13;10.10;99.90
52159;DHT22;38145;53.182;6.284;2022-12-20T15:51:39;10.30;99.90
52159;DHT22;38145;53.182;6.284;2022-12-20T15:54:11;10.30;99.90
52159;DHT22;38145;53.182;6.284;2022-12-20T15:56:39;10.20;99.90
52159;DHT22;38145;53.182;6.284;2022-12-20T15:59:04;10.00;99.90
52159;DHT22;38145;53.182;6.284;2022-12-20T16:01:32;10.10;99.90
52159;DHT22;38145;53.182;6.284;2022-12-20T16:03:59;10.10;99.90
52159;DHT22;38145;53.182;6.284;2022-12-20T16:06:25;9.90;99.90
52159;DHT22;38145;53.182;6.284;2022-12-20T16:08:51;10.00;99.90
52159;DHT22;38145;53.182;6.284;2022-12-20T16:11:24;10.20;99.90
52159;DHT22;38145;53.182;6.284;2022-12-20T16:13:52;10.00;99.90
52159;DHT22;38145;53.182;6.284;2022-12-20T16:16:22;10.00;99.90
52159;DHT22;38145;53.182;6.284;2022-12-20T16:18:48;10.10;99.90
52159;DHT22;38145;53.182;6.284;2022-12-20T16:21:15;10.00;99.90
52159;DHT22;38145;53.182;6.284;2022-12-20T16:23:41;10.20;99.90
52159;DHT22;38145;53.182;6.284;2022-12-20T16:26:10;10.10;99.90
52159;DHT22;38145;53.182;6.284;2022-12-20T16:28:36;9.80;99.90
52159;DHT22;38145;53.182;6.284;2022-12-20T16:31:08;10.10;99.90
52159;DHT22;38145;53.182;6.284;2022-12-20T16:33:34;10.10;99.90
52159;DHT22;38145;53.182;6.284;2022-12-20T16:36:00;9.80;99.90
52159;DHT22;38145;53.182;6.284;2022-12-20T16:38:26;9.90;99.90
52159;DHT22;38145;53.182;6.284;2022-12-20T16:40:51;9.70;99.90